Readfield, Wisconsin
Current Conditions -  °F | °C
As of 5:20 AM on Tuesday 21 Oct 2014 (Local Time) from KATW Reporting Station
Overcast Overcast  
Wind Chill: 37°   Ceiling: 2000
Heat Index: 43°   Visibility: 10mi
Dew Point: 36°   Wind: 12mph
Humidity: 76%   Direction: 10°N
Pressure: 30.12"   Gusts: NA
Location:  44.27°N, 88.77°W
Report Text: KATW 211020Z 01010KT 10SM OVC020 06/02 A3012 RMK FIRST
Loading
Personal Weather Stations






























Interactive Weather Map
Tropical Storm Tracking
New forecast layout! Learn more

10-Day Weather Forecast

Advertisements
Track Severe Weather on mobile